sensor_id;sensor_type;location;lat;lon;timestamp;temperature;humidity
46816;DHT22;32787;53.316;8.670;2023-05-24T00:01:06;8.90;82.70
46816;DHT22;32787;53.316;8.670;2023-05-24T00:03:32;8.90;83.10
46816;DHT22;32787;53.316;8.670;2023-05-24T00:05:59;8.90;83.40
46816;DHT22;32787;53.316;8.670;2023-05-24T00:08:25;8.90;83.50
46816;DHT22;32787;53.316;8.670;2023-05-24T00:10:51;8.90;83.80
46816;DHT22;32787;53.316;8.670;2023-05-24T00:13:17;9.10;83.40
46816;DHT22;32787;53.316;8.670;2023-05-24T00:15:42;8.90;83.60
46816;DHT22;32787;53.316;8.670;2023-05-24T00:18:08;8.90;83.90
46816;DHT22;32787;53.316;8.670;2023-05-24T00:20:34;8.90;84.20
46816;DHT22;32787;53.316;8.670;2023-05-24T00:22:59;8.90;84.00
46816;DHT22;32787;53.316;8.670;2023-05-24T00:25:25;8.90;84.10
46816;DHT22;32787;53.316;8.670;2023-05-24T00:27:51;8.80;84.80
46816;DHT22;32787;53.316;8.670;2023-05-24T00:30:16;8.80;84.90
46816;DHT22;32787;53.316;8.670;2023-05-24T00:32:42;8.90;85.00
46816;DHT22;32787;53.316;8.670;2023-05-24T00:35:08;8.90;85.40
46816;DHT22;32787;53.316;8.670;2023-05-24T00:37:33;8.80;85.50
46816;DHT22;32787;53.316;8.670;2023-05-24T00:39:59;8.80;85.60
46816;DHT22;32787;53.316;8.670;2023-05-24T00:42:24;8.70;86.00
46816;DHT22;32787;53.316;8.670;2023-05-24T00:44:50;8.80;86.00
46816;DHT22;32787;53.316;8.670;2023-05-24T00:47:16;8.80;86.20
46816;DHT22;32787;53.316;8.670;2023-05-24T00:49:41;8.90;85.70
46816;DHT22;32787;53.316;8.670;2023-05-24T00:52:07;8.90;86.00
46816;DHT22;32787;53.316;8.670;2023-05-24T00:54:33;8.90;85.80
46816;DHT22;32787;53.316;8.670;2023-05-24T00:56:59;9.10;85.60
46816;DHT22;32787;53.316;8.670;2023-05-24T00:59:26;9.00;85.20
46816;DHT22;32787;53.316;8.670;2023-05-24T01:01:52;8.90;85.60
46816;DHT22;32787;53.316;8.670;2023-05-24T01:04:19;8.80;86.00
46816;DHT22;32787;53.316;8.670;2023-05-24T01:06:57;8.80;86.00
46816;DHT22;32787;53.316;8.670;2023-05-24T01:09:42;8.70;86.30
46816;DHT22;32787;53.316;8.670;2023-05-24T01:18:23;8.70;86.40
46816;DHT22;32787;53.316;8.670;2023-05-24T01:27:16;8.60;86.80
46816;DHT22;32787;53.316;8.670;2023-05-24T01:29:17;8.50;86.70
46816;DHT22;32787;53.316;8.670;2023-05-24T01:31:43;8.50;86.80
46816;DHT22;32787;53.316;8.670;2023-05-24T01:34:10;8.60;86.50
46816;DHT22;32787;53.316;8.670;2023-05-24T01:36:36;8.60;86.80
46816;DHT22;32787;53.316;8.670;2023-05-24T01:39:02;8.70;86.40
46816;DHT22;32787;53.316;8.670;2023-05-24T01:41:41;8.60;86.40
46816;DHT22;32787;53.316;8.670;2023-05-24T01:46:37;8.50;86.90
46816;DHT22;32787;53.316;8.670;2023-05-24T01:52:21;8.50;86.90
46816;DHT22;32787;53.316;8.670;2023-05-24T01:54:50;8.70;86.40
46816;DHT22;32787;53.316;8.670;2023-05-24T01:57:18;8.50;86.50
46816;DHT22;32787;53.316;8.670;2023-05-24T01:59:44;8.50;86.80
46816;DHT22;32787;53.316;8.670;2023-05-24T02:02:11;8.60;86.80
46816;DHT22;32787;53.316;8.670;2023-05-24T02:04:36;8.60;86.60
46816;DHT22;32787;53.316;8.670;2023-05-24T02:07:02;8.50;86.40
46816;DHT22;32787;53.316;8.670;2023-05-24T02:09:28;8.50;86.70
46816;DHT22;32787;53.316;8.670;2023-05-24T02:11:53;8.40;86.70
46816;DHT22;32787;53.316;8.670;2023-05-24T02:14:19;8.50;86.60
46816;DHT22;32787;53.316;8.670;2023-05-24T02:16:46;8.40;86.50
46816;DHT22;32787;53.316;8.670;2023-05-24T02:19:12;8.40;86.70
46816;DHT22;32787;53.316;8.670;2023-05-24T02:21:38;8.40;86.80
46816;DHT22;32787;53.316;8.670;2023-05-24T02:24:04;8.40;86.60
46816;DHT22;32787;53.316;8.670;2023-05-24T02:26:32;8.40;86.60
46816;DHT22;32787;53.316;8.670;2023-05-24T02:28:57;8.50;86.70
46816;DHT22;32787;53.316;8.670;2023-05-24T02:31:23;8.40;86.50
46816;DHT22;32787;53.316;8.670;2023-05-24T02:33:53;8.40;86.80
46816;DHT22;32787;53.316;8.670;2023-05-24T02:36:19;8.40;86.60
46816;DHT22;32787;53.316;8.670;2023-05-24T02:38:48;8.40;86.70
46816;DHT22;32787;53.316;8.670;2023-05-24T02:41:13;8.40;86.60
46816;DHT22;32787;53.316;8.670;2023-05-24T02:43:45;8.40;86.70
46816;DHT22;32787;53.316;8.670;2023-05-24T02:46:12;8.40;86.40
46816;DHT22;32787;53.316;8.670;2023-05-24T02:48:37;8.50;86.40
46816;DHT22;32787;53.316;8.670;2023-05-24T02:51:03;8.50;86.30
46816;DHT22;32787;53.316;8.670;2023-05-24T02:53:29;8.40;86.60
46816;DHT22;32787;53.316;8.670;2023-05-24T02:55:56;8.50;86.40
46816;DHT22;32787;53.316;8.670;2023-05-24T02:58:22;8.40;86.40
46816;DHT22;32787;53.316;8.670;2023-05-24T03:00:48;8.40;86.40
46816;DHT22;32787;53.316;8.670;2023-05-24T03:03:13;8.40;86.70
46816;DHT22;32787;53.316;8.670;2023-05-24T03:05:39;8.40;86.60
46816;DHT22;32787;53.316;8.670;2023-05-24T03:08:05;8.40;86.80
46816;DHT22;32787;53.316;8.670;2023-05-24T03:10:31;8.50;86.50
46816;DHT22;32787;53.316;8.670;2023-05-24T03:12:56;8.40;86.50
46816;DHT22;32787;53.316;8.670;2023-05-24T03:15:22;8.30;87.00
46816;DHT22;32787;53.316;8.670;2023-05-24T03:17:48;8.30;87.10
46816;DHT22;32787;53.316;8.670;2023-05-24T03:20:13;8.40;87.20
46816;DHT22;32787;53.316;8.670;2023-05-24T03:22:40;8.30;87.20
46816;DHT22;32787;53.316;8.670;2023-05-24T03:25:06;8.20;87.40
46816;DHT22;32787;53.316;8.670;2023-05-24T03:27:33;8.40;87.40
46816;DHT22;32787;53.316;8.670;2023-05-24T03:29:59;8.30;87.30
46816;DHT22;32787;53.316;8.670;2023-05-24T03:32:25;8.40;87.10
46816;DHT22;32787;53.316;8.670;2023-05-24T03:34:50;8.40;87.40
46816;DHT22;32787;53.316;8.670;2023-05-24T03:37:16;8.60;86.90
46816;DHT22;32787;53.316;8.670;2023-05-24T03:39:41;8.60;86.70
46816;DHT22;32787;53.316;8.670;2023-05-24T03:42:07;8.60;86.90
46816;DHT22;32787;53.316;8.670;2023-05-24T03:44:32;8.60;86.80
46816;DHT22;32787;53.316;8.670;2023-05-24T03:46:58;8.60;87.00
46816;DHT22;32787;53.316;8.670;2023-05-24T03:49:24;8.60;87.10
46816;DHT22;32787;53.316;8.670;2023-05-24T03:51:49;8.60;87.10
46816;DHT22;32787;53.316;8.670;2023-05-24T03:54:15;8.70;87.10
46816;DHT22;32787;53.316;8.670;2023-05-24T03:56:42;8.70;86.90
46816;DHT22;32787;53.316;8.670;2023-05-24T03:59:08;8.70;86.90
46816;DHT22;32787;53.316;8.670;2023-05-24T04:01:33;8.80;86.80
46816;DHT22;32787;53.316;8.670;2023-05-24T04:04:04;8.70;87.00
46816;DHT22;32787;53.316;8.670;2023-05-24T04:06:29;8.80;86.90
46816;DHT22;32787;53.316;8.670;2023-05-24T04:08:56;8.80;87.20
46816;DHT22;32787;53.316;8.670;2023-05-24T04:11:23;8.90;86.90
46816;DHT22;32787;53.316;8.670;2023-05-24T04:13:53;8.90;86.80
46816;DHT22;32787;53.316;8.670;2023-05-24T04:16:23;8.90;86.80
46816;DHT22;32787;53.316;8.670;2023-05-24T04:18:50;8.90;86.80
46816;DHT22;32787;53.316;8.670;2023-05-24T04:21:16;9.10;86.10
46816;DHT22;32787;53.316;8.670;2023-05-24T04:23:41;9.00;86.40
46816;DHT22;32787;53.316;8.670;2023-05-24T04:26:07;8.90;86.80
46816;DHT22;32787;53.316;8.670;2023-05-24T04:28:35;9.20;86.60
46816;DHT22;32787;53.316;8.670;2023-05-24T04:31:05;9.10;86.50
46816;DHT22;32787;53.316;8.670;2023-05-24T04:33:35;9.10;86.50
46816;DHT22;32787;53.316;8.670;2023-05-24T04:36:01;9.20;86.90
46816;DHT22;32787;53.316;8.670;2023-05-24T04:38:28;9.10;86.90
46816;DHT22;32787;53.316;8.670;2023-05-24T04:41:00;9.10;86.90
46816;DHT22;32787;53.316;8.670;2023-05-24T04:43:26;9.00;87.10
46816;DHT22;32787;53.316;8.670;2023-05-24T04:45:53;9.00;87.60
46816;DHT22;32787;53.316;8.670;2023-05-24T04:48:20;8.90;87.80
46816;DHT22;32787;53.316;8.670;2023-05-24T04:50:46;8.90;88.20
46816;DHT22;32787;53.316;8.670;2023-05-24T04:53:12;8.90;88.40
46816;DHT22;32787;53.316;8.670;2023-05-24T04:55:40;8.80;88.10
46816;DHT22;32787;53.316;8.670;2023-05-24T04:58:05;9.00;88.40
46816;DHT22;32787;53.316;8.670;2023-05-24T05:00:31;8.90;88.50
46816;DHT22;32787;53.316;8.670;2023-05-24T05:02:57;8.80;89.00
46816;DHT22;32787;53.316;8.670;2023-05-24T05:05:23;9.00;89.00
46816;DHT22;32787;53.316;8.670;2023-05-24T05:07:48;8.90;88.70
46816;DHT22;32787;53.316;8.670;2023-05-24T05:10:14;8.90;88.90
46816;DHT22;32787;53.316;8.670;2023-05-24T05:12:40;9.00;88.90
46816;DHT22;32787;53.316;8.670;2023-05-24T05:15:06;9.10;88.70
46816;DHT22;32787;53.316;8.670;2023-05-24T05:17:32;8.90;88.80
46816;DHT22;32787;53.316;8.670;2023-05-24T05:19:57;9.10;88.90
46816;DHT22;32787;53.316;8.670;2023-05-24T05:22:23;9.10;89.00
46816;DHT22;32787;53.316;8.670;2023-05-24T05:24:48;9.20;89.20
46816;DHT22;32787;53.316;8.670;2023-05-24T05:27:14;9.10;88.80
46816;DHT22;32787;53.316;8.670;2023-05-24T05:29:40;9.40;88.50
46816;DHT22;32787;53.316;8.670;2023-05-24T05:32:06;9.20;88.50
46816;DHT22;32787;53.316;8.670;2023-05-24T05:34:31;9.20;89.00
46816;DHT22;32787;53.316;8.670;2023-05-24T05:36:57;9.10;89.30
46816;DHT22;32787;53.316;8.670;2023-05-24T05:39:23;9.10;89.10
46816;DHT22;32787;53.316;8.670;2023-05-24T05:41:48;9.40;89.20
46816;DHT22;32787;53.316;8.670;2023-05-24T05:44:14;9.20;88.80
46816;DHT22;32787;53.316;8.670;2023-05-24T05:46:40;9.30;89.20
46816;DHT22;32787;53.316;8.670;2023-05-24T05:49:08;9.20;89.10
46816;DHT22;32787;53.316;8.670;2023-05-24T05:51:34;9.10;89.50
46816;DHT22;32787;53.316;8.670;2023-05-24T05:53:59;9.20;89.50
46816;DHT22;32787;53.316;8.670;2023-05-24T05:56:25;9.10;89.80
46816;DHT22;32787;53.316;8.670;2023-05-24T05:58:52;9.10;90.20
46816;DHT22;32787;53.316;8.670;2023-05-24T06:01:17;9.10;90.20
46816;DHT22;32787;53.316;8.670;2023-05-24T06:03:43;9.10;90.30
46816;DHT22;32787;53.316;8.670;2023-05-24T06:06:09;9.10;90.50
46816;DHT22;32787;53.316;8.670;2023-05-24T06:08:35;9.10;90.50
46816;DHT22;32787;53.316;8.670;2023-05-24T06:11:01;9.30;90.50
46816;DHT22;32787;53.316;8.670;2023-05-24T06:13:27;9.30;90.30
46816;DHT22;32787;53.316;8.670;2023-05-24T06:15:53;9.40;90.20
46816;DHT22;32787;53.316;8.670;2023-05-24T06:18:19;9.40;90.00
46816;DHT22;32787;53.316;8.670;2023-05-24T06:20:45;9.40;90.20
46816;DHT22;32787;53.316;8.670;2023-05-24T06:23:11;9.40;90.20
46816;DHT22;32787;53.316;8.670;2023-05-24T06:25:37;9.50;90.40
46816;DHT22;32787;53.316;8.670;2023-05-24T06:28:03;9.50;90.60
46816;DHT22;32787;53.316;8.670;2023-05-24T06:30:29;9.50;90.20
46816;DHT22;32787;53.316;8.670;2023-05-24T06:32:54;9.60;90.20
46816;DHT22;32787;53.316;8.670;2023-05-24T06:35:21;9.60;90.20
46816;DHT22;32787;53.316;8.670;2023-05-24T06:37:47;9.70;90.10
46816;DHT22;32787;53.316;8.670;2023-05-24T06:40:12;9.70;90.00
46816;DHT22;32787;53.316;8.670;2023-05-24T06:42:38;9.80;89.90
46816;DHT22;32787;53.316;8.670;2023-05-24T06:45:04;9.80;89.80
46816;DHT22;32787;53.316;8.670;2023-05-24T06:47:30;9.90;89.50
46816;DHT22;32787;53.316;8.670;2023-05-24T06:49:56;9.90;89.60
46816;DHT22;32787;53.316;8.670;2023-05-24T06:52:22;10.00;89.50
46816;DHT22;32787;53.316;8.670;2023-05-24T06:54:48;10.00;89.50
46816;DHT22;32787;53.316;8.670;2023-05-24T06:57:14;10.20;89.50
46816;DHT22;32787;53.316;8.670;2023-05-24T06:59:40;10.20;89.30
46816;DHT22;32787;53.316;8.670;2023-05-24T07:02:05;10.40;88.50
46816;DHT22;32787;53.316;8.670;2023-05-24T07:04:31;10.40;88.50
46816;DHT22;32787;53.316;8.670;2023-05-24T07:06:57;10.40;88.50
46816;DHT22;32787;53.316;8.670;2023-05-24T07:09:22;10.50;88.40
46816;DHT22;32787;53.316;8.670;2023-05-24T07:11:48;10.70;87.90
46816;DHT22;32787;53.316;8.670;2023-05-24T07:14:14;10.70;87.80
46816;DHT22;32787;53.316;8.670;2023-05-24T07:16:40;10.70;87.70
46816;DHT22;32787;53.316;8.670;2023-05-24T07:19:05;10.90;87.60
46816;DHT22;32787;53.316;8.670;2023-05-24T07:21:32;10.80;87.40
46816;DHT22;32787;53.316;8.670;2023-05-24T07:23:57;10.90;87.70
46816;DHT22;32787;53.316;8.670;2023-05-24T07:26:23;10.90;87.00
46816;DHT22;32787;53.316;8.670;2023-05-24T07:28:48;10.90;86.70
46816;DHT22;32787;53.316;8.670;2023-05-24T07:31:14;11.10;86.70
46816;DHT22;32787;53.316;8.670;2023-05-24T07:33:40;11.00;87.10
46816;DHT22;32787;53.316;8.670;2023-05-24T07:36:06;11.20;86.90
46816;DHT22;32787;53.316;8.670;2023-05-24T07:38:33;11.20;86.70
46816;DHT22;32787;53.316;8.670;2023-05-24T07:41:00;11.30;86.60
46816;DHT22;32787;53.316;8.670;2023-05-24T07:43:28;11.40;86.60
46816;DHT22;32787;53.316;8.670;2023-05-24T07:45:53;11.40;86.60
46816;DHT22;32787;53.316;8.670;2023-05-24T07:48:19;11.40;86.00
46816;DHT22;32787;53.316;8.670;2023-05-24T07:50:47;11.30;86.20
46816;DHT22;32787;53.316;8.670;2023-05-24T07:53:14;11.20;86.60
46816;DHT22;32787;53.316;8.670;2023-05-24T07:55:40;11.50;86.70
46816;DHT22;32787;53.316;8.670;2023-05-24T07:58:05;11.30;85.80
46816;DHT22;32787;53.316;8.670;2023-05-24T08:00:31;11.30;86.40
46816;DHT22;32787;53.316;8.670;2023-05-24T08:02:58;11.50;85.70
46816;DHT22;32787;53.316;8.670;2023-05-24T08:05:24;11.20;85.90
46816;DHT22;32787;53.316;8.670;2023-05-24T08:07:50;11.30;85.60
46816;DHT22;32787;53.316;8.670;2023-05-24T08:10:16;11.30;85.80
46816;DHT22;32787;53.316;8.670;2023-05-24T08:12:43;11.40;85.80
46816;DHT22;32787;53.316;8.670;2023-05-24T08:15:09;11.30;85.70
46816;DHT22;32787;53.316;8.670;2023-05-24T08:17:35;11.30;86.00
46816;DHT22;32787;53.316;8.670;2023-05-24T08:20:02;11.40;86.20
46816;DHT22;32787;53.316;8.670;2023-05-24T08:22:30;11.40;86.20
46816;DHT22;32787;53.316;8.670;2023-05-24T08:24:56;11.20;86.50
46816;DHT22;32787;53.316;8.670;2023-05-24T08:27:22;11.10;86.60
46816;DHT22;32787;53.316;8.670;2023-05-24T08:29:48;11.30;86.80
46816;DHT22;32787;53.316;8.670;2023-05-24T08:32:14;11.10;87.00
46816;DHT22;32787;53.316;8.670;2023-05-24T08:34:39;11.10;87.60
46816;DHT22;32787;53.316;8.670;2023-05-24T08:37:05;11.20;87.20
46816;DHT22;32787;53.316;8.670;2023-05-24T08:39:31;11.20;86.80
46816;DHT22;32787;53.316;8.670;2023-05-24T08:41:57;11.20;86.70
46816;DHT22;32787;53.316;8.670;2023-05-24T08:44:24;11.30;87.00
46816;DHT22;32787;53.316;8.670;2023-05-24T08:46:52;11.40;86.70
46816;DHT22;32787;53.316;8.670;2023-05-24T08:49:19;11.40;86.30
46816;DHT22;32787;53.316;8.670;2023-05-24T08:51:46;11.40;86.30
46816;DHT22;32787;53.316;8.670;2023-05-24T08:54:12;11.30;86.40
46816;DHT22;32787;53.316;8.670;2023-05-24T08:56:39;11.20;86.90
46816;DHT22;32787;53.316;8.670;2023-05-24T08:59:07;11.40;86.40
46816;DHT22;32787;53.316;8.670;2023-05-24T09:01:33;11.80;86.20
46816;DHT22;32787;53.316;8.670;2023-05-24T09:04:02;11.80;85.20
46816;DHT22;32787;53.316;8.670;2023-05-24T09:06:28;12.10;84.90
46816;DHT22;32787;53.316;8.670;2023-05-24T09:08:55;12.10;83.90
46816;DHT22;32787;53.316;8.670;2023-05-24T09:11:23;12.20;83.50
46816;DHT22;32787;53.316;8.670;2023-05-24T09:13:50;12.30;84.20
46816;DHT22;32787;53.316;8.670;2023-05-24T09:16:16;12.60;83.80
46816;DHT22;32787;53.316;8.670;2023-05-24T09:18:41;12.80;82.10
46816;DHT22;32787;53.316;8.670;2023-05-24T09:21:09;12.80;82.10
46816;DHT22;32787;53.316;8.670;2023-05-24T09:23:34;12.80;81.90
46816;DHT22;32787;53.316;8.670;2023-05-24T09:26:06;12.70;80.80
46816;DHT22;32787;53.316;8.670;2023-05-24T09:28:32;12.50;80.40
46816;DHT22;32787;53.316;8.670;2023-05-24T09:31:00;12.60;81.50
46816;DHT22;32787;53.316;8.670;2023-05-24T09:33:33;12.50;81.20
46816;DHT22;32787;53.316;8.670;2023-05-24T09:36:01;12.50;81.40
46816;DHT22;32787;53.316;8.670;2023-05-24T09:38:27;12.60;80.20
46816;DHT22;32787;53.316;8.670;2023-05-24T09:41:06;12.70;80.60
46816;DHT22;32787;53.316;8.670;2023-05-24T09:43:33;12.80;79.90
46816;DHT22;32787;53.316;8.670;2023-05-24T09:46:04;12.80;80.90
46816;DHT22;32787;53.316;8.670;2023-05-24T09:48:30;12.60;80.10
46816;DHT22;32787;53.316;8.670;2023-05-24T09:51:06;12.70;80.90
46816;DHT22;32787;53.316;8.670;2023-05-24T09:53:34;12.80;80.90
46816;DHT22;32787;53.316;8.670;2023-05-24T09:56:03;13.00;79.20
46816;DHT22;32787;53.316;8.670;2023-05-24T09:58:30;13.00;78.80
46816;DHT22;32787;53.316;8.670;2023-05-24T10:01:08;13.00;79.50
46816;DHT22;32787;53.316;8.670;2023-05-24T10:03:51;13.10;78.40
46816;DHT22;32787;53.316;8.670;2023-05-24T10:06:17;12.90;79.20
46816;DHT22;32787;53.316;8.670;2023-05-24T10:08:43;12.90;79.40
46816;DHT22;32787;53.316;8.670;2023-05-24T10:11:09;13.00;79.30
46816;DHT22;32787;53.316;8.670;2023-05-24T10:13:35;13.30;79.40
46816;DHT22;32787;53.316;8.670;2023-05-24T10:16:04;13.20;79.00
46816;DHT22;32787;53.316;8.670;2023-05-24T10:18:30;13.10;78.20
46816;DHT22;32787;53.316;8.670;2023-05-24T10:20:56;13.10;79.40
46816;DHT22;32787;53.316;8.670;2023-05-24T10:23:23;12.80;79.00
46816;DHT22;32787;53.316;8.670;2023-05-24T10:25:54;12.80;80.00
46816;DHT22;32787;53.316;8.670;2023-05-24T10:28:21;12.90;79.10
46816;DHT22;32787;53.316;8.670;2023-05-24T10:33:34;12.80;79.40
46816;DHT22;32787;53.316;8.670;2023-05-24T10:36:03;12.90;78.60
46816;DHT22;32787;53.316;8.670;2023-05-24T10:38:29;12.80;78.50
46816;DHT22;32787;53.316;8.670;2023-05-24T10:40:55;12.80;79.80
46816;DHT22;32787;53.316;8.670;2023-05-24T10:43:20;12.50;79.90
46816;DHT22;32787;53.316;8.670;2023-05-24T10:45:49;12.60;80.80
46816;DHT22;32787;53.316;8.670;2023-05-24T10:50:42;12.90;79.70
46816;DHT22;32787;53.316;8.670;2023-05-24T10:53:18;12.90;79.00
46816;DHT22;32787;53.316;8.670;2023-05-24T10:55:54;12.90;79.70
46816;DHT22;32787;53.316;8.670;2023-05-24T10:58:22;12.70;79.40
46816;DHT22;32787;53.316;8.670;2023-05-24T11:00:51;12.60;79.80
46816;DHT22;32787;53.316;8.670;2023-05-24T11:03:18;12.60;80.00
46816;DHT22;32787;53.316;8.670;2023-05-24T11:05:49;12.60;80.10
46816;DHT22;32787;53.316;8.670;2023-05-24T11:08:32;12.60;80.00
46816;DHT22;32787;53.316;8.670;2023-05-24T11:11:16;12.70;79.00
46816;DHT22;32787;53.316;8.670;2023-05-24T11:13:54;12.70;79.60
46816;DHT22;32787;53.316;8.670;2023-05-24T11:16:37;12.70;79.30
46816;DHT22;32787;53.316;8.670;2023-05-24T11:19:28;12.80;78.90
46816;DHT22;32787;53.316;8.670;2023-05-24T11:21:56;12.80;78.70
46816;DHT22;32787;53.316;8.670;2023-05-24T11:24:25;12.80;79.70
46816;DHT22;32787;53.316;8.670;2023-05-24T11:26:50;13.10;78.90
46816;DHT22;32787;53.316;8.670;2023-05-24T11:29:17;12.90;79.30
46816;DHT22;32787;53.316;8.670;2023-05-24T11:31:50;12.80;79.70
46816;DHT22;32787;53.316;8.670;2023-05-24T11:34:19;13.00;79.20
46816;DHT22;32787;53.316;8.670;2023-05-24T11:36:46;13.20;79.30
46816;DHT22;32787;53.316;8.670;2023-05-24T11:39:13;13.20;78.50
46816;DHT22;32787;53.316;8.670;2023-05-24T11:41:39;13.00;79.30
46816;DHT22;32787;53.316;8.670;2023-05-24T11:44:07;13.30;78.50
46816;DHT22;32787;53.316;8.670;2023-05-24T11:46:33;13.20;77.90
46816;DHT22;32787;53.316;8.670;2023-05-24T11:48:59;13.20;77.50
46816;DHT22;32787;53.316;8.670;2023-05-24T11:51:29;12.90;77.20
46816;DHT22;32787;53.316;8.670;2023-05-24T11:53:56;12.90;78.80
46816;DHT22;32787;53.316;8.670;2023-05-24T11:56:23;12.80;78.90
46816;DHT22;32787;53.316;8.670;2023-05-24T11:58:49;13.10;78.20
46816;DHT22;32787;53.316;8.670;2023-05-24T12:01:26;12.80;78.80
46816;DHT22;32787;53.316;8.670;2023-05-24T12:03:52;13.00;79.10
46816;DHT22;32787;53.316;8.670;2023-05-24T12:06:19;13.00;78.50
46816;DHT22;32787;53.316;8.670;2023-05-24T12:08:45;13.20;78.00
46816;DHT22;32787;53.316;8.670;2023-05-24T12:11:11;13.20;79.00
46816;DHT22;32787;53.316;8.670;2023-05-24T12:13:38;13.30;77.60
46816;DHT22;32787;53.316;8.670;2023-05-24T12:16:05;13.30;78.20
46816;DHT22;32787;53.316;8.670;2023-05-24T12:18:31;13.10;78.90
46816;DHT22;32787;53.316;8.670;2023-05-24T12:20:57;13.10;79.00
46816;DHT22;32787;53.316;8.670;2023-05-24T12:23:24;13.20;78.30
46816;DHT22;32787;53.316;8.670;2023-05-24T12:25:57;13.30;78.70
46816;DHT22;32787;53.316;8.670;2023-05-24T12:28:24;13.30;76.60
46816;DHT22;32787;53.316;8.670;2023-05-24T12:30:49;13.20;77.50
46816;DHT22;32787;53.316;8.670;2023-05-24T12:33:18;13.10;77.00
46816;DHT22;32787;53.316;8.670;2023-05-24T12:35:43;12.90;77.40
46816;DHT22;32787;53.316;8.670;2023-05-24T12:38:10;13.00;77.60
46816;DHT22;32787;53.316;8.670;2023-05-24T12:40:36;13.10;76.40
46816;DHT22;32787;53.316;8.670;2023-05-24T12:43:03;13.20;76.60
46816;DHT22;32787;53.316;8.670;2023-05-24T12:45:29;12.90;76.80
46816;DHT22;32787;53.316;8.670;2023-05-24T12:47:57;12.80;77.30
46816;DHT22;32787;53.316;8.670;2023-05-24T12:50:25;12.80;78.00
46816;DHT22;32787;53.316;8.670;2023-05-24T12:52:51;12.90;78.70
46816;DHT22;32787;53.316;8.670;2023-05-24T12:55:25;12.90;78.90
46816;DHT22;32787;53.316;8.670;2023-05-24T12:57:51;12.80;79.20
46816;DHT22;32787;53.316;8.670;2023-05-24T13:00:20;12.50;79.80
46816;DHT22;32787;53.316;8.670;2023-05-24T13:02:46;12.60;78.90
46816;DHT22;32787;53.316;8.670;2023-05-24T13:05:12;12.40;80.10
46816;DHT22;32787;53.316;8.670;2023-05-24T13:07:38;12.60;79.80
46816;DHT22;32787;53.316;8.670;2023-05-24T13:10:05;12.80;79.40
46816;DHT22;32787;53.316;8.670;2023-05-24T13:12:31;12.70;79.30
46816;DHT22;32787;53.316;8.670;2023-05-24T13:14:58;12.80;79.00
46816;DHT22;32787;53.316;8.670;2023-05-24T13:17:24;12.80;79.40
46816;DHT22;32787;53.316;8.670;2023-05-24T13:19:49;12.80;78.60
46816;DHT22;32787;53.316;8.670;2023-05-24T13:22:15;13.00;78.70
46816;DHT22;32787;53.316;8.670;2023-05-24T13:24:41;13.30;77.90
46816;DHT22;32787;53.316;8.670;2023-05-24T13:27:07;13.40;78.40
46816;DHT22;32787;53.316;8.670;2023-05-24T13:29:32;13.60;77.60
46816;DHT22;32787;53.316;8.670;2023-05-24T13:31:58;13.70;76.60
46816;DHT22;32787;53.316;8.670;2023-05-24T13:34:24;14.20;73.70
46816;DHT22;32787;53.316;8.670;2023-05-24T13:36:50;13.90;73.80
46816;DHT22;32787;53.316;8.670;2023-05-24T13:39:17;13.90;74.10
46816;DHT22;32787;53.316;8.670;2023-05-24T13:41:44;14.10;74.60
46816;DHT22;32787;53.316;8.670;2023-05-24T13:44:13;13.80;74.80
46816;DHT22;32787;53.316;8.670;2023-05-24T13:46:40;13.60;75.00
46816;DHT22;32787;53.316;8.670;2023-05-24T13:49:06;13.50;76.40
46816;DHT22;32787;53.316;8.670;2023-05-24T13:51:32;13.60;76.80
46816;DHT22;32787;53.316;8.670;2023-05-24T13:53:58;13.40;75.80
46816;DHT22;32787;53.316;8.670;2023-05-24T13:56:24;13.40;76.40
46816;DHT22;32787;53.316;8.670;2023-05-24T13:58:52;13.70;76.20
46816;DHT22;32787;53.316;8.670;2023-05-24T14:01:18;13.60;77.00
46816;DHT22;32787;53.316;8.670;2023-05-24T14:03:43;13.80;76.20
46816;DHT22;32787;53.316;8.670;2023-05-24T14:06:09;13.90;76.50
46816;DHT22;32787;53.316;8.670;2023-05-24T14:08:35;13.70;76.60
46816;DHT22;32787;53.316;8.670;2023-05-24T14:11:00;13.80;76.60
46816;DHT22;32787;53.316;8.670;2023-05-24T14:13:26;13.70;76.10
46816;DHT22;32787;53.316;8.670;2023-05-24T14:15:52;13.70;76.40
46816;DHT22;32787;53.316;8.670;2023-05-24T14:18:17;13.90;75.50
46816;DHT22;32787;53.316;8.670;2023-05-24T14:20:43;13.90;74.70
46816;DHT22;32787;53.316;8.670;2023-05-24T14:23:09;14.00;75.80
46816;DHT22;32787;53.316;8.670;2023-05-24T14:25:35;14.00;76.00
46816;DHT22;32787;53.316;8.670;2023-05-24T14:28:00;14.10;76.00
46816;DHT22;32787;53.316;8.670;2023-05-24T14:30:29;13.70;74.70
46816;DHT22;32787;53.316;8.670;2023-05-24T14:32:56;13.80;76.20
46816;DHT22;32787;53.316;8.670;2023-05-24T14:35:22;13.90;75.10
46816;DHT22;32787;53.316;8.670;2023-05-24T14:37:48;13.80;75.00
46816;DHT22;32787;53.316;8.670;2023-05-24T14:40:13;13.80;76.20
46816;DHT22;32787;53.316;8.670;2023-05-24T14:42:41;13.80;75.60
46816;DHT22;32787;53.316;8.670;2023-05-24T14:45:06;14.00;75.80
46816;DHT22;32787;53.316;8.670;2023-05-24T14:47:33;14.00;74.50
46816;DHT22;32787;53.316;8.670;2023-05-24T14:49:58;13.90;73.60
46816;DHT22;32787;53.316;8.670;2023-05-24T14:52:24;14.00;75.10
46816;DHT22;32787;53.316;8.670;2023-05-24T14:54:49;14.10;74.30
46816;DHT22;32787;53.316;8.670;2023-05-24T14:57:15;13.90;74.10
46816;DHT22;32787;53.316;8.670;2023-05-24T14:59:41;13.80;74.90
46816;DHT22;32787;53.316;8.670;2023-05-24T15:02:06;13.90;74.70
46816;DHT22;32787;53.316;8.670;2023-05-24T15:04:32;13.80;74.80
46816;DHT22;32787;53.316;8.670;2023-05-24T15:06:58;13.60;75.20
46816;DHT22;32787;53.316;8.670;2023-05-24T15:09:23;13.50;76.30
46816;DHT22;32787;53.316;8.670;2023-05-24T15:11:49;13.70;77.30
46816;DHT22;32787;53.316;8.670;2023-05-24T15:14:15;13.80;76.40
46816;DHT22;32787;53.316;8.670;2023-05-24T15:16:41;13.80;76.00
46816;DHT22;32787;53.316;8.670;2023-05-24T15:19:06;13.90;76.20
46816;DHT22;32787;53.316;8.670;2023-05-24T15:21:34;14.10;75.10
46816;DHT22;32787;53.316;8.670;2023-05-24T15:24:01;13.70;75.10
46816;DHT22;32787;53.316;8.670;2023-05-24T15:26:27;13.70;75.20
46816;DHT22;32787;53.316;8.670;2023-05-24T15:28:52;13.60;76.00
46816;DHT22;32787;53.316;8.670;2023-05-24T15:31:18;13.80;76.40
46816;DHT22;32787;53.316;8.670;2023-05-24T15:33:43;13.80;75.80
46816;DHT22;32787;53.316;8.670;2023-05-24T15:36:09;13.80;74.40
46816;DHT22;32787;53.316;8.670;2023-05-24T15:38:38;13.90;75.40
46816;DHT22;32787;53.316;8.670;2023-05-24T15:41:04;13.80;75.10
46816;DHT22;32787;53.316;8.670;2023-05-24T15:43:30;13.60;74.80
46816;DHT22;32787;53.316;8.670;2023-05-24T15:45:55;13.60;75.60
46816;DHT22;32787;53.316;8.670;2023-05-24T15:48:21;13.70;76.20
46816;DHT22;32787;53.316;8.670;2023-05-24T15:50:47;13.70;76.00
46816;DHT22;32787;53.316;8.670;2023-05-24T15:53:12;13.70;75.90
46816;DHT22;32787;53.316;8.670;2023-05-24T15:55:38;13.60;75.80
46816;DHT22;32787;53.316;8.670;2023-05-24T15:58:04;13.60;76.10